createdAt,value
2022-12-04T00:00:18.040Z,85.70
2022-12-04T00:01:20.805Z,85.81
2022-12-04T00:02:23.535Z,85.77
2022-12-04T00:03:58.739Z,85.70
2022-12-04T00:05:01.819Z,85.76
2022-12-04T00:06:04.708Z,85.66
2022-12-04T00:07:45.099Z,85.60
2022-12-04T00:08:48.375Z,85.75
2022-12-04T00:09:51.252Z,85.82
2022-12-04T00:11:26.111Z,85.68
2022-12-04T00:12:28.910Z,85.72
2022-12-04T00:13:31.686Z,85.60
2022-12-04T00:15:31.453Z,85.52
2022-12-04T00:16:34.569Z,85.67
2022-12-04T00:17:37.911Z,85.83
2022-12-04T00:19:12.496Z,85.82
2022-12-04T00:20:15.156Z,85.82
2022-12-04T00:21:17.988Z,85.82
2022-12-04T00:22:52.407Z,85.87
2022-12-04T00:23:55.239Z,85.82
2022-12-04T00:24:58.121Z,85.78
2022-12-04T00:26:33.243Z,85.82
2022-12-04T00:27:35.998Z,85.80
2022-12-04T00:28:38.737Z,85.88
2022-12-04T00:30:13.392Z,86.04
2022-12-04T00:31:16.211Z,85.96
2022-12-04T00:32:19.451Z,86.00
2022-12-04T00:33:54.010Z,86.04
2022-12-04T00:35:00.036Z,86.04
2022-12-04T00:36:02.819Z,85.91
2022-12-04T00:37:37.305Z,85.91
2022-12-04T00:38:40.064Z,86.06
2022-12-04T00:39:42.761Z,86.09
2022-12-04T00:41:17.766Z,85.93
2022-12-04T00:42:20.581Z,85.87
2022-12-04T00:43:23.314Z,85.90
2022-12-04T00:44:58.059Z,86.05
2022-12-04T00:46:01.027Z,86.07
2022-12-04T00:47:04.388Z,86.00
2022-12-04T00:48:39.116Z,86.21
2022-12-04T00:49:41.957Z,86.27
2022-12-04T00:50:45.368Z,86.27
2022-12-04T00:52:19.899Z,86.27
2022-12-04T00:53:22.644Z,86.26
2022-12-04T00:54:25.284Z,86.14
2022-12-04T00:55:59.728Z,86.19
2022-12-04T00:57:04.809Z,86.20
2022-12-04T00:58:07.565Z,86.14
2022-12-04T00:59:42.055Z,86.19
2022-12-04T01:00:17.187Z,86.29
2022-12-04T01:01:20.288Z,86.25
2022-12-04T01:02:23.747Z,86.14
2022-12-04T01:03:58.880Z,86.25
2022-12-04T01:05:01.649Z,86.34
2022-12-04T01:06:04.305Z,86.32
2022-12-04T01:07:45.908Z,86.35
2022-12-04T01:08:49.146Z,86.35
2022-12-04T01:09:52.110Z,86.27
2022-12-04T01:11:26.944Z,86.39
2022-12-04T01:12:29.635Z,86.45
2022-12-04T01:13:32.382Z,86.38
2022-12-04T01:15:06.942Z,86.45
2022-12-04T01:16:09.801Z,86.53
2022-12-04T01:17:12.964Z,86.50
2022-12-04T01:18:47.476Z,86.53
2022-12-04T01:19:50.221Z,86.50
2022-12-04T01:20:53.360Z,86.50
2022-12-04T01:22:27.982Z,86.68
2022-12-04T01:23:30.737Z,86.75
2022-12-04T01:24:33.470Z,86.73
2022-12-04T01:26:08.125Z,86.84
2022-12-04T01:27:10.921Z,86.92
2022-12-04T01:28:13.661Z,86.96
2022-12-04T01:29:48.105Z,86.87
2022-12-04T01:30:51.300Z,86.88
2022-12-04T01:31:54.371Z,86.87
2022-12-04T01:33:29.783Z,87.03
2022-12-04T01:34:32.572Z,86.90
2022-12-04T01:35:35.317Z,86.91
2022-12-04T01:37:09.820Z,86.98
2022-12-04T01:38:12.577Z,87.08
2022-12-04T01:39:15.320Z,87.11
2022-12-04T01:40:49.845Z,87.12
2022-12-04T01:41:52.651Z,87.17
2022-12-04T01:42:55.275Z,87.24
2022-12-04T01:44:29.998Z,87.06
2022-12-04T01:45:32.775Z,87.12
2022-12-04T01:46:36.264Z,87.13
2022-12-04T01:48:10.865Z,87.16
2022-12-04T01:49:13.586Z,87.19
2022-12-04T01:50:16.489Z,87.21
2022-12-04T01:51:51.057Z,87.33
2022-12-04T01:52:53.956Z,87.31
2022-12-04T01:53:56.612Z,87.28
2022-12-04T01:55:31.144Z,87.34
2022-12-04T01:56:33.893Z,87.28
2022-12-04T01:57:36.621Z,87.33
2022-12-04T01:59:11.178Z,87.33
2022-12-04T02:00:18.256Z,87.24
2022-12-04T02:01:21.394Z,87.26
2022-12-04T02:02:25.366Z,87.29
2022-12-04T02:04:00.731Z,87.34
2022-12-04T02:05:03.483Z,87.47
2022-12-04T02:06:06.246Z,87.55
2022-12-04T02:07:40.964Z,87.57
2022-12-04T02:08:44.081Z,87.64
2022-12-04T02:09:46.949Z,87.46
2022-12-04T02:11:22.110Z,87.61
2022-12-04T02:12:24.895Z,87.65
2022-12-04T02:13:27.697Z,87.48
2022-12-04T02:15:02.187Z,87.63
2022-12-04T02:16:05.132Z,87.62
2022-12-04T02:17:08.498Z,87.73
2022-12-04T02:18:43.049Z,87.78
2022-12-04T02:19:45.674Z,87.79
2022-12-04T02:20:49.012Z,87.80
2022-12-04T02:22:23.619Z,87.83
2022-12-04T02:23:26.286Z,87.87
2022-12-04T02:24:29.075Z,88.09
2022-12-04T02:26:10.015Z,87.97
2022-12-04T02:27:12.868Z,87.89
2022-12-04T02:28:15.673Z,87.88
2022-12-04T02:29:50.132Z,88.03
2022-12-04T02:30:53.387Z,88.06
2022-12-04T02:31:56.621Z,88.09
2022-12-04T02:33:31.178Z,88.22
2022-12-04T02:34:33.976Z,88.25
2022-12-04T02:35:36.756Z,88.14
2022-12-04T02:37:11.281Z,88.21
2022-12-04T02:38:14.039Z,88.16
2022-12-04T02:39:16.815Z,88.17
2022-12-04T02:40:51.339Z,88.22
2022-12-04T02:41:54.090Z,88.24
2022-12-04T02:42:56.813Z,88.21
2022-12-04T02:44:31.294Z,88.25
2022-12-04T02:45:35.188Z,88.29
2022-12-04T02:46:38.453Z,88.27
2022-12-04T02:48:13.040Z,88.37
2022-12-04T02:49:15.720Z,88.35
2022-12-04T02:50:18.587Z,88.41
2022-12-04T02:51:52.946Z,88.43
2022-12-04T02:52:55.610Z,88.42
2022-12-04T02:53:58.314Z,88.45
2022-12-04T02:55:32.783Z,88.40
2022-12-04T02:56:35.494Z,88.38
2022-12-04T02:57:38.127Z,88.37
2022-12-04T02:59:12.633Z,88.40
2022-12-04T03:00:17.656Z,88.39
2022-12-04T03:01:20.593Z,88.41
2022-12-04T03:02:23.961Z,88.45
2022-12-04T03:03:58.753Z,88.41
2022-12-04T03:05:01.670Z,88.46
2022-12-04T03:06:04.479Z,88.47
2022-12-04T03:07:39.226Z,88.43
2022-12-04T03:08:42.497Z,88.54
2022-12-04T03:09:45.234Z,88.53
2022-12-04T03:11:20.238Z,88.47
2022-12-04T03:12:22.931Z,88.49
2022-12-04T03:13:25.730Z,88.49
2022-12-04T03:15:00.253Z,88.51
2022-12-04T03:16:02.985Z,88.50
2022-12-04T03:17:06.192Z,88.39
2022-12-04T03:18:40.921Z,88.33
2022-12-04T03:19:43.713Z,88.37
2022-12-04T03:20:46.851Z,88.35
2022-12-04T03:22:21.460Z,88.40
2022-12-04T03:23:24.110Z,88.44
2022-12-04T03:24:26.846Z,88.51
2022-12-04T03:26:01.398Z,88.48
2022-12-04T03:27:04.102Z,88.44
2022-12-04T03:28:06.940Z,88.42
2022-12-04T03:29:41.463Z,88.42
2022-12-04T03:30:44.862Z,88.44
2022-12-04T03:31:48.042Z,88.49
2022-12-04T03:33:22.511Z,88.57
2022-12-04T03:34:25.190Z,88.43
2022-12-04T03:35:27.890Z,88.28
2022-12-04T03:37:02.627Z,88.39
2022-12-04T03:38:05.320Z,88.36
2022-12-04T03:39:08.075Z,88.49
2022-12-04T03:40:42.977Z,88.46
2022-12-04T03:41:52.108Z,88.44
2022-12-04T03:42:54.890Z,88.35
2022-12-04T03:44:29.419Z,88.30
2022-12-04T03:45:32.136Z,88.26
2022-12-04T03:46:35.311Z,88.25
2022-12-04T03:48:10.073Z,88.35
2022-12-04T03:49:19.949Z,88.24
2022-12-04T03:50:22.796Z,88.19
2022-12-04T03:51:57.249Z,88.26
2022-12-04T03:53:00.055Z,88.30
2022-12-04T03:54:02.693Z,88.28
2022-12-04T03:55:37.158Z,88.30
2022-12-04T03:56:39.812Z,88.17
2022-12-04T03:57:42.640Z,88.04
2022-12-04T03:59:17.199Z,88.18
2022-12-04T04:00:17.378Z,88.18
2022-12-04T04:01:20.346Z,88.23
2022-12-04T04:02:23.863Z,88.33
2022-12-04T04:03:59.200Z,88.20
2022-12-04T04:05:01.961Z,88.22
2022-12-04T04:06:04.731Z,88.15
2022-12-04T04:07:41.610Z,88.14
2022-12-04T04:08:44.884Z,88.13
2022-12-04T04:09:47.727Z,88.14
2022-12-04T04:11:23.150Z,88.15
2022-12-04T04:12:25.955Z,88.10
2022-12-04T04:13:28.783Z,88.11
2022-12-04T04:15:03.397Z,88.08
2022-12-04T04:16:06.405Z,88.09
2022-12-04T04:17:09.700Z,88.06
2022-12-04T04:18:50.875Z,88.08
2022-12-04T04:19:54.214Z,88.11
2022-12-04T04:20:57.234Z,88.10
2022-12-04T04:22:31.820Z,88.15
2022-12-04T04:23:41.924Z,88.10
2022-12-04T04:24:44.599Z,88.12
2022-12-04T04:26:19.174Z,88.17
2022-12-04T04:27:21.900Z,88.22
2022-12-04T04:28:24.584Z,88.18
2022-12-04T04:29:59.949Z,88.12
2022-12-04T04:31:02.924Z,88.04
2022-12-04T04:32:06.260Z,88.14
2022-12-04T04:33:40.751Z,88.18
2022-12-04T04:34:43.552Z,88.10
2022-12-04T04:35:46.312Z,88.21
2022-12-04T04:37:20.746Z,88.22
2022-12-04T04:38:23.440Z,88.24
2022-12-04T04:39:26.193Z,88.23
2022-12-04T04:41:00.821Z,88.33
2022-12-04T04:42:03.526Z,88.20
2022-12-04T04:43:06.259Z,88.25
2022-12-04T04:44:40.831Z,88.20
2022-12-04T04:45:43.608Z,88.22
2022-12-04T04:46:46.906Z,88.31
2022-12-04T04:48:21.632Z,88.17
2022-12-04T04:49:24.358Z,88.25
2022-12-04T04:50:27.186Z,88.25
2022-12-04T04:52:01.748Z,88.26
2022-12-04T04:53:04.396Z,88.27
2022-12-04T04:54:07.215Z,88.28
2022-12-04T04:55:41.680Z,88.19
2022-12-04T04:56:44.442Z,88.28
2022-12-04T04:57:47.146Z,88.33
2022-12-04T04:59:21.630Z,88.24
2022-12-04T05:00:17.141Z,88.27
2022-12-04T05:01:19.957Z,88.32
2022-12-04T05:02:23.302Z,88.19
2022-12-04T05:03:58.539Z,88.37
2022-12-04T05:05:01.199Z,88.28
2022-12-04T05:05:47.098Z,88.28
2022-12-04T05:06:50.049Z,88.27
2022-12-04T05:07:53.328Z,88.32
2022-12-04T05:09:28.684Z,88.22
2022-12-04T05:10:39.293Z,88.29
2022-12-04T05:11:42.111Z,88.41
2022-12-04T05:13:16.866Z,88.44
2022-12-04T05:14:19.820Z,88.36
2022-12-04T05:15:22.734Z,88.45
2022-12-04T05:17:01.844Z,88.42
2022-12-04T05:18:10.031Z,88.42
2022-12-04T05:19:12.740Z,88.42
2022-12-04T05:20:48.599Z,88.41
2022-12-04T05:21:51.731Z,88.38
2022-12-04T05:22:54.531Z,88.48
2022-12-04T05:24:29.245Z,88.32
2022-12-04T05:25:32.037Z,88.41
2022-12-04T05:26:34.945Z,88.46
2022-12-04T05:28:09.929Z,88.55
2022-12-04T05:29:12.874Z,88.60
2022-12-04T05:30:22.150Z,88.53
2022-12-04T05:31:57.319Z,88.59
2022-12-04T05:33:00.257Z,88.58
2022-12-04T05:34:03.031Z,88.57
2022-12-04T05:35:37.575Z,88.68
2022-12-04T05:36:40.654Z,88.66
2022-12-04T05:37:43.547Z,88.67
2022-12-04T05:39:18.364Z,88.58
2022-12-04T05:40:21.536Z,88.58
2022-12-04T05:41:24.274Z,88.59
2022-12-04T05:42:59.116Z,88.62
2022-12-04T05:44:01.911Z,88.59
2022-12-04T05:45:04.837Z,88.68
2022-12-04T05:46:39.522Z,88.65
2022-12-04T05:47:43.337Z,88.74
2022-12-04T05:48:45.991Z,88.75
2022-12-04T05:50:20.961Z,88.69
2022-12-04T05:51:23.736Z,88.71
2022-12-04T05:52:26.631Z,88.71
2022-12-04T05:54:01.291Z,88.65
2022-12-04T05:55:04.239Z,88.63
2022-12-04T05:56:06.979Z,88.71
2022-12-04T05:57:41.493Z,88.74
2022-12-04T05:58:44.497Z,88.67
2022-12-04T05:59:47.350Z,88.81
2022-12-04T06:00:17.747Z,88.81
2022-12-04T06:01:20.503Z,88.85
2022-12-04T06:02:23.797Z,88.87
2022-12-04T06:03:59.776Z,88.92
2022-12-04T06:05:02.619Z,88.80
2022-12-04T06:06:05.349Z,88.83
2022-12-04T06:07:46.995Z,88.92
2022-12-04T06:08:50.301Z,88.83
2022-12-04T06:09:53.473Z,88.91
2022-12-04T06:11:28.083Z,89.02
2022-12-04T06:12:31.047Z,89.06
2022-12-04T06:13:33.917Z,89.05
2022-12-04T06:15:08.697Z,89.06
2022-12-04T06:16:11.649Z,88.96
2022-12-04T06:17:15.018Z,88.92
2022-12-04T06:18:49.669Z,88.96
2022-12-04T06:19:52.957Z,88.96
2022-12-04T06:21:03.590Z,88.99
2022-12-04T06:22:38.419Z,88.99
2022-12-04T06:23:41.425Z,89.01
2022-12-04T06:24:44.195Z,89.00
2022-12-04T06:26:18.813Z,89.11
2022-12-04T06:27:51.968Z,89.02
2022-12-04T06:28:54.704Z,89.03
2022-12-04T06:30:29.299Z,89.03
2022-12-04T06:31:32.419Z,89.02
2022-12-04T06:32:35.906Z,89.03
2022-12-04T06:34:10.514Z,89.08
2022-12-04T06:35:13.302Z,89.12
2022-12-04T06:36:16.226Z,89.08
2022-12-04T06:37:50.861Z,89.11
2022-12-04T06:38:53.552Z,89.05
2022-12-04T06:40:03.515Z,89.07
2022-12-04T06:41:38.188Z,89.12
2022-12-04T06:42:41.225Z,89.13
2022-12-04T06:43:44.128Z,89.21
2022-12-04T06:45:18.946Z,89.24
2022-12-04T06:46:22.545Z,89.27
2022-12-04T06:47:35.473Z,89.35
2022-12-04T06:49:10.393Z,89.33
2022-12-04T06:50:13.063Z,89.33
2022-12-04T06:51:15.893Z,89.41
2022-12-04T06:52:50.495Z,89.46
2022-12-04T06:53:59.976Z,89.58
2022-12-04T06:55:02.856Z,89.56
2022-12-04T06:56:37.513Z,89.51
2022-12-04T06:57:40.501Z,89.45
2022-12-04T06:58:43.497Z,89.55
2022-12-04T07:00:17.391Z,89.63
2022-12-04T07:01:20.357Z,89.60
2022-12-04T07:02:24.035Z,89.68
2022-12-04T07:03:59.250Z,89.76
2022-12-04T07:05:02.182Z,89.69
2022-12-04T07:06:05.157Z,89.70
2022-12-04T07:07:39.788Z,89.80
2022-12-04T07:08:43.165Z,89.82
2022-12-04T07:09:46.077Z,89.87
2022-12-04T07:11:21.158Z,89.93
2022-12-04T07:12:24.132Z,90.00
2022-12-04T07:13:27.059Z,89.97
2022-12-04T07:15:01.753Z,89.96
2022-12-04T07:16:04.496Z,90.06
2022-12-04T07:17:07.842Z,90.04
2022-12-04T07:18:42.653Z,90.04
2022-12-04T07:19:45.501Z,90.04
2022-12-04T07:20:48.797Z,90.07
2022-12-04T07:22:23.315Z,90.15
2022-12-04T07:23:26.151Z,90.15
2022-12-04T07:24:28.970Z,90.16
2022-12-04T07:26:03.601Z,90.11
2022-12-04T07:27:06.674Z,90.15
2022-12-04T07:28:09.560Z,90.14
2022-12-04T07:29:44.365Z,90.22
2022-12-04T07:30:55.813Z,90.17
2022-12-04T07:31:59.264Z,90.18
2022-12-04T07:33:34.173Z,90.14
2022-12-04T07:34:36.935Z,90.16
2022-12-04T07:35:39.738Z,90.20
2022-12-04T07:37:14.457Z,90.27
2022-12-04T07:38:17.387Z,90.32
2022-12-04T07:39:20.282Z,90.26
2022-12-04T07:40:55.114Z,90.25
2022-12-04T07:41:58.073Z,90.27
2022-12-04T07:43:07.016Z,90.17
2022-12-04T07:44:41.782Z,90.11
2022-12-04T07:45:44.823Z,90.24
2022-12-04T07:46:47.916Z,90.27
2022-12-04T07:48:22.290Z,90.30
2022-12-04T07:49:30.675Z,90.25
2022-12-04T07:50:34.186Z,90.21
2022-12-04T07:52:08.860Z,90.19
2022-12-04T07:53:11.661Z,90.26
2022-12-04T07:54:14.443Z,90.31
2022-12-04T07:55:49.033Z,90.17
2022-12-04T07:56:51.778Z,90.17
2022-12-04T07:57:54.625Z,90.12
2022-12-04T07:59:29.152Z,90.10
2022-12-04T08:00:18.203Z,90.12
2022-12-04T08:01:21.714Z,90.03
2022-12-04T08:02:25.464Z,90.07
2022-12-04T08:04:00.482Z,90.07
2022-12-04T08:05:03.867Z,90.10
2022-12-04T08:06:06.868Z,90.10
2022-12-04T08:07:41.936Z,90.15
2022-12-04T08:08:45.359Z,90.07
2022-12-04T08:09:56.015Z,90.18
2022-12-04T08:11:30.893Z,90.12
2022-12-04T08:12:33.729Z,89.91
2022-12-04T08:13:36.659Z,89.95
2022-12-04T08:15:11.678Z,89.94
2022-12-04T08:16:14.563Z,89.98
2022-12-04T08:17:18.217Z,89.97
2022-12-04T08:18:53.236Z,90.04
2022-12-04T08:19:56.395Z,90.03
2022-12-04T08:20:59.630Z,89.96
2022-12-04T08:22:34.268Z,89.98
2022-12-04T08:23:37.102Z,89.95
2022-12-04T08:24:39.958Z,89.97
2022-12-04T08:26:14.627Z,89.93
2022-12-04T08:27:17.417Z,89.98
2022-12-04T08:28:27.537Z,89.91
2022-12-04T08:30:03.034Z,90.00
2022-12-04T08:31:06.171Z,89.87
2022-12-04T08:32:09.774Z,89.91
2022-12-04T08:33:44.729Z,89.83
2022-12-04T08:34:52.521Z,89.90
2022-12-04T08:35:58.333Z,89.85
2022-12-04T08:37:32.883Z,89.86
2022-12-04T08:38:35.734Z,89.82
2022-12-04T08:39:38.601Z,89.72
2022-12-04T08:41:13.720Z,89.79
2022-12-04T08:42:16.668Z,89.77
2022-12-04T08:43:19.600Z,89.74
2022-12-04T08:44:54.357Z,89.74
2022-12-04T08:45:57.198Z,89.80
2022-12-04T08:47:00.579Z,89.72
2022-12-04T08:48:40.995Z,89.63
2022-12-04T08:49:43.827Z,89.63
2022-12-04T08:50:47.232Z,89.66
2022-12-04T08:52:21.965Z,89.67
2022-12-04T08:53:24.823Z,89.48
2022-12-04T08:54:32.993Z,89.56
2022-12-04T08:56:10.567Z,89.60
2022-12-04T08:57:13.278Z,89.59
2022-12-04T08:58:16.280Z,89.60
2022-12-04T08:59:50.944Z,89.57
2022-12-04T09:00:17.655Z,89.55
2022-12-04T09:01:20.845Z,89.54
2022-12-04T09:02:24.243Z,89.48
2022-12-04T09:03:59.232Z,89.42
2022-12-04T09:05:02.610Z,89.33
2022-12-04T09:06:05.403Z,89.25
2022-12-04T09:07:40.765Z,89.14
2022-12-04T09:08:44.126Z,89.08
2022-12-04T09:09:53.940Z,89.02
2022-12-04T09:11:28.984Z,88.99
2022-12-04T09:12:31.740Z,89.11
2022-12-04T09:13:34.550Z,88.95
2022-12-04T09:15:09.261Z,88.89
2022-12-04T09:16:12.794Z,88.94
2022-12-04T09:17:16.293Z,89.01
2022-12-04T09:18:51.165Z,88.93
2022-12-04T09:19:59.249Z,88.89
2022-12-04T09:21:04.316Z,88.77
2022-12-04T09:23:08.256Z,88.63
2022-12-04T09:24:11.050Z,88.73
2022-12-04T09:25:13.809Z,88.74
2022-12-04T09:26:48.647Z,88.65
2022-12-04T09:27:58.938Z,88.41
2022-12-04T09:29:01.702Z,88.41
2022-12-04T09:30:36.672Z,88.56
2022-12-04T09:31:40.068Z,88.58
2022-12-04T09:32:43.173Z,88.27
2022-12-04T09:34:17.775Z,88.07
2022-12-04T09:35:20.623Z,88.04
2022-12-04T09:36:23.512Z,87.86
2022-12-04T09:37:58.454Z,87.87
2022-12-04T09:39:01.286Z,87.90
2022-12-04T09:40:03.914Z,87.97
2022-12-04T09:41:46.004Z,87.88
2022-12-04T09:42:48.913Z,87.87
2022-12-04T09:43:51.728Z,87.74
2022-12-04T09:45:26.762Z,87.88
2022-12-04T09:46:29.718Z,87.82
2022-12-04T09:47:37.757Z,87.76
2022-12-04T09:49:12.335Z,87.76
2022-12-04T09:50:15.364Z,87.64
2022-12-04T09:51:18.230Z,87.58
2022-12-04T09:52:59.173Z,87.54
2022-12-04T09:54:01.994Z,87.62
2022-12-04T09:55:05.056Z,87.60
2022-12-04T09:56:39.662Z,87.22
2022-12-04T09:57:42.465Z,87.30
2022-12-04T09:58:53.431Z,87.48
2022-12-04T10:00:18.231Z,87.45
2022-12-04T10:01:21.237Z,87.48
2022-12-04T10:02:24.743Z,87.48
2022-12-04T10:04:08.189Z,87.48
2022-12-04T10:05:11.616Z,87.49
2022-12-04T10:06:14.534Z,87.44
2022-12-04T10:07:49.648Z,87.55
2022-12-04T10:08:53.434Z,87.34
2022-12-04T10:09:56.615Z,87.34
2022-12-04T10:11:38.076Z,87.11
2022-12-04T10:12:40.956Z,87.04
2022-12-04T10:13:43.821Z,87.02
2022-12-04T10:15:18.435Z,87.08
2022-12-04T10:16:21.726Z,86.86
2022-12-04T10:17:30.835Z,86.83
2022-12-04T10:19:07.436Z,86.87
2022-12-04T10:20:10.431Z,86.91
2022-12-04T10:21:13.251Z,86.87
2022-12-04T10:22:48.322Z,86.90
2022-12-04T10:23:58.182Z,86.89
2022-12-04T10:25:01.070Z,86.90
2022-12-04T10:26:35.965Z,86.92
2022-12-04T10:27:38.953Z,86.79
2022-12-04T10:28:41.958Z,86.82
2022-12-04T10:30:24.172Z,86.91
2022-12-04T10:31:27.581Z,86.90
2022-12-04T10:32:31.075Z,87.05
2022-12-04T10:34:05.815Z,87.06
2022-12-04T10:35:08.802Z,87.10
2022-12-04T10:36:11.653Z,87.06
2022-12-04T10:37:46.554Z,86.92
2022-12-04T10:38:49.461Z,87.01
2022-12-04T10:39:52.364Z,86.92
2022-12-04T10:41:27.601Z,86.61
2022-12-04T10:42:30.574Z,86.62
2022-12-04T10:43:33.343Z,86.63
2022-12-04T10:45:08.257Z,86.92
2022-12-04T10:46:11.318Z,86.93
2022-12-04T10:47:15.232Z,86.95
2022-12-04T10:48:50.162Z,86.81
2022-12-04T10:49:53.261Z,86.78
2022-12-04T10:50:56.307Z,86.91
2022-12-04T10:52:31.040Z,86.99
2022-12-04T10:53:33.849Z,86.83
2022-12-04T10:54:36.833Z,86.86
2022-12-04T10:56:11.558Z,86.74
2022-12-04T10:57:14.511Z,86.81
2022-12-04T10:58:17.450Z,86.81
2022-12-04T10:59:52.458Z,86.82
2022-12-04T11:00:17.640Z,86.86
2022-12-04T11:01:20.562Z,86.92
2022-12-04T11:02:24.105Z,86.90
2022-12-04T11:04:00.307Z,86.89
2022-12-04T11:05:03.121Z,86.95
2022-12-04T11:06:06.007Z,86.79
2022-12-04T11:07:40.869Z,86.77
2022-12-04T11:08:44.445Z,86.76
2022-12-04T11:09:47.370Z,86.94
2022-12-04T11:11:22.562Z,86.93
2022-12-04T11:12:25.439Z,86.97
2022-12-04T11:13:28.234Z,86.87
2022-12-04T11:15:03.167Z,86.97
2022-12-04T11:16:06.337Z,87.03
2022-12-04T11:17:09.840Z,87.06
2022-12-04T11:18:44.608Z,87.03
2022-12-04T11:19:47.454Z,86.95
2022-12-04T11:20:52.758Z,86.97
2022-12-04T11:22:27.571Z,86.94
2022-12-04T11:23:30.416Z,86.94
2022-12-04T11:24:33.195Z,86.97
2022-12-04T11:26:12.173Z,87.00
2022-12-04T11:27:15.158Z,86.93
2022-12-04T11:28:46.013Z,86.93
2022-12-04T11:30:20.565Z,86.86
2022-12-04T11:31:23.600Z,87.05
2022-12-04T11:32:27.272Z,87.02
2022-12-04T11:34:01.968Z,87.00
2022-12-04T11:35:04.854Z,86.97
2022-12-04T11:36:07.933Z,86.96
2022-12-04T11:37:50.634Z,86.98
2022-12-04T11:38:53.573Z,87.00
2022-12-04T11:39:56.508Z,87.04
2022-12-04T11:41:31.483Z,87.22
2022-12-04T11:42:34.394Z,87.14
2022-12-04T11:43:37.549Z,87.15
2022-12-04T11:45:18.108Z,87.03
2022-12-04T11:46:20.978Z,87.13
2022-12-04T11:47:24.192Z,87.19
2022-12-04T11:48:59.072Z,87.03
2022-12-04T11:50:02.254Z,87.00
2022-12-04T11:51:05.283Z,87.03
2022-12-04T11:52:39.962Z,87.09
2022-12-04T11:53:43.109Z,87.05
2022-12-04T11:54:45.889Z,87.06
2022-12-04T11:56:21.608Z,86.98
2022-12-04T11:57:24.464Z,87.09
2022-12-04T11:58:27.480Z,87.26
2022-12-04T12:00:18.274Z,87.49
2022-12-04T12:01:21.660Z,87.37
2022-12-04T12:02:25.256Z,87.44
2022-12-04T12:04:01.759Z,87.34
2022-12-04T12:05:04.632Z,87.02
2022-12-04T12:06:07.589Z,87.12
2022-12-04T12:07:42.564Z,87.14
2022-12-04T12:08:53.955Z,87.14
2022-12-04T12:09:57.214Z,87.05
2022-12-04T12:11:36.835Z,87.05
2022-12-04T12:12:40.046Z,87.10
2022-12-04T12:13:43.011Z,87.15
2022-12-04T12:15:18.124Z,87.03
2022-12-04T12:16:21.256Z,87.25
2022-12-04T12:17:30.599Z,87.22
2022-12-04T12:19:11.120Z,87.08
2022-12-04T12:20:13.881Z,87.16
2022-12-04T12:21:17.150Z,87.25
2022-12-04T12:22:58.502Z,87.12
2022-12-04T12:24:01.382Z,87.11
2022-12-04T12:25:04.677Z,87.05
2022-12-04T12:26:44.629Z,87.17
2022-12-04T12:27:47.655Z,87.20
2022-12-04T12:28:50.645Z,87.31
2022-12-04T12:30:25.510Z,87.21
2022-12-04T12:31:29.025Z,87.17
2022-12-04T12:32:32.398Z,87.30
2022-12-04T12:34:07.503Z,87.33
2022-12-04T12:35:10.565Z,87.40
2022-12-04T12:36:13.705Z,87.46
2022-12-04T12:37:55.946Z,87.48
2022-12-04T12:38:59.091Z,87.44
2022-12-04T12:40:02.690Z,87.42
2022-12-04T12:41:38.084Z,87.36
2022-12-04T12:42:41.402Z,87.38
2022-12-04T12:43:50.794Z,87.55
2022-12-04T12:45:26.517Z,87.65
2022-12-04T12:46:30.276Z,87.69
2022-12-04T12:47:33.951Z,87.71
2022-12-04T12:49:08.787Z,87.79
2022-12-04T12:50:12.101Z,87.97
2022-12-04T12:51:35.931Z,87.98
2022-12-04T12:53:11.006Z,88.02
2022-12-04T12:54:14.006Z,87.98
2022-12-04T12:55:17.099Z,88.08
2022-12-04T12:56:55.546Z,88.03
2022-12-04T12:57:58.307Z,87.95
2022-12-04T12:59:01.241Z,87.97
2022-12-04T13:00:17.838Z,87.98
2022-12-04T13:01:20.870Z,88.03
2022-12-04T13:02:24.447Z,88.04
2022-12-04T13:03:59.836Z,88.01
2022-12-04T13:05:02.748Z,88.04
2022-12-04T13:06:05.911Z,88.21
2022-12-04T13:07:40.791Z,88.30
2022-12-04T13:08:47.941Z,88.26
2022-12-04T13:09:51.973Z,88.25
2022-12-04T13:11:27.298Z,88.26
2022-12-04T13:12:30.271Z,88.29
2022-12-04T13:13:33.179Z,88.43
2022-12-04T13:15:07.735Z,88.33
2022-12-04T13:16:10.636Z,88.06
2022-12-04T13:17:14.105Z,87.95
2022-12-04T13:18:49.061Z,87.95
2022-12-04T13:19:52.009Z,88.03
2022-12-04T13:21:01.825Z,88.02
2022-12-04T13:22:36.629Z,87.82
2022-12-04T13:23:39.542Z,87.81
2022-12-04T13:24:42.393Z,87.93
2022-12-04T13:26:17.308Z,87.82
2022-12-04T13:27:25.348Z,87.89
2022-12-04T13:28:28.351Z,87.79
2022-12-04T13:30:03.578Z,87.88
2022-12-04T13:31:06.452Z,87.92
2022-12-04T13:32:09.812Z,87.84
2022-12-04T13:33:50.763Z,87.95
2022-12-04T13:34:53.578Z,88.00
2022-12-04T13:35:56.370Z,88.01
2022-12-04T13:37:31.590Z,87.88
2022-12-04T13:38:34.400Z,87.97
2022-12-04T13:39:44.019Z,88.04
2022-12-04T13:41:19.079Z,88.07
2022-12-04T13:42:21.997Z,88.14
2022-12-04T13:43:24.901Z,88.15
2022-12-04T13:45:00.323Z,88.15
2022-12-04T13:46:03.570Z,88.12
2022-12-04T13:47:06.695Z,88.14
2022-12-04T13:48:41.467Z,88.21
2022-12-04T13:49:44.305Z,88.05
2022-12-04T13:50:52.357Z,88.18
2022-12-04T13:52:27.312Z,88.17
2022-12-04T13:53:30.385Z,88.23
2022-12-04T13:54:33.505Z,88.17
2022-12-04T13:56:15.759Z,88.08
2022-12-04T13:57:18.680Z,88.23
2022-12-04T13:58:21.809Z,88.16
2022-12-04T13:59:56.462Z,88.02
2022-12-04T14:00:17.585Z,88.02
2022-12-04T14:01:20.691Z,87.93
2022-12-04T14:02:24.003Z,87.96
2022-12-04T14:03:59.569Z,87.92
2022-12-04T14:05:02.800Z,87.94
2022-12-04T14:06:05.581Z,87.93
2022-12-04T14:07:40.459Z,87.68
2022-12-04T14:08:48.509Z,87.60
2022-12-04T14:09:51.509Z,87.74
2022-12-04T14:11:26.449Z,87.72
2022-12-04T14:12:29.166Z,87.56
2022-12-04T14:13:31.988Z,87.63
2022-12-04T14:15:06.545Z,87.60
2022-12-04T14:16:09.608Z,87.58
2022-12-04T14:17:13.155Z,87.61
2022-12-04T14:18:48.152Z,87.52
2022-12-04T14:19:51.116Z,87.42
2022-12-04T14:20:59.952Z,87.57
2022-12-04T14:22:34.461Z,87.50
2022-12-04T14:23:37.440Z,87.57
2022-12-04T14:24:40.342Z,87.59
2022-12-04T14:26:15.690Z,87.58
2022-12-04T14:28:01.486Z,87.58
2022-12-04T14:29:04.316Z,87.52
2022-12-04T14:30:39.443Z,87.54
2022-12-04T14:31:42.647Z,87.50
2022-12-04T14:32:45.552Z,87.48
2022-12-04T14:34:20.206Z,87.55
2022-12-04T14:35:23.187Z,87.45
2022-12-04T14:36:26.152Z,87.42
2022-12-04T14:38:01.084Z,87.54
2022-12-04T14:39:03.948Z,87.47
2022-12-04T14:40:06.905Z,87.50
2022-12-04T14:41:41.613Z,87.54
2022-12-04T14:42:49.403Z,87.52
2022-12-04T14:43:52.269Z,87.57
2022-12-04T14:45:27.159Z,87.50
2022-12-04T14:46:30.702Z,87.50
2022-12-04T14:47:33.893Z,87.51
2022-12-04T14:49:08.597Z,87.45
2022-12-04T14:50:11.298Z,87.45
2022-12-04T14:51:14.177Z,87.45
2022-12-04T14:52:48.980Z,87.51
2022-12-04T14:53:51.637Z,87.48
2022-12-04T14:54:54.792Z,87.43
2022-12-04T14:56:29.867Z,87.60
2022-12-04T14:57:32.846Z,87.59
2022-12-04T14:58:35.776Z,87.60
2022-12-04T15:00:18.082Z,87.58
2022-12-04T15:01:25.342Z,87.60
2022-12-04T15:02:31.307Z,87.64
2022-12-04T15:04:06.677Z,87.77
2022-12-04T15:05:10.097Z,87.65
2022-12-04T15:06:12.887Z,87.58
2022-12-04T15:07:52.520Z,87.54
2022-12-04T15:08:56.091Z,87.58
2022-12-04T15:09:58.949Z,87.57
2022-12-04T15:11:33.794Z,87.62
2022-12-04T15:12:36.708Z,87.71
2022-12-04T15:13:39.583Z,87.66
2022-12-04T15:15:14.467Z,87.66
2022-12-04T15:16:17.908Z,87.68
2022-12-04T15:17:20.953Z,87.65
2022-12-04T15:18:55.949Z,87.61
2022-12-04T15:19:58.809Z,87.73
2022-12-04T15:21:01.962Z,87.67
2022-12-04T15:22:36.759Z,87.69
2022-12-04T15:23:39.613Z,87.66
2022-12-04T15:24:42.307Z,87.74
2022-12-04T15:26:17.834Z,87.68
2022-12-04T15:27:20.545Z,87.78
2022-12-04T15:28:29.856Z,87.77
2022-12-04T15:30:04.630Z,87.81
2022-12-04T15:31:07.677Z,87.77
2022-12-04T15:32:11.151Z,87.89
2022-12-04T15:33:45.733Z,87.78
2022-12-04T15:34:48.550Z,87.77
2022-12-04T15:35:51.943Z,87.78
2022-12-04T15:37:26.699Z,87.75
2022-12-04T15:38:29.457Z,87.73
2022-12-04T15:39:32.271Z,87.81
2022-12-04T15:41:10.947Z,87.83
2022-12-04T15:42:19.983Z,87.78
2022-12-04T15:43:22.854Z,87.85
2022-12-04T15:44:58.215Z,87.87
2022-12-04T15:46:01.530Z,87.84
2022-12-04T15:47:04.895Z,87.84
2022-12-04T15:48:43.812Z,87.90
2022-12-04T15:49:49.624Z,87.95
2022-12-04T15:50:53.207Z,88.00